AMU127 ZSNJ-VMMC
Flight info
| Callsign | AMU127 |
|---|---|
| Flight time | N/A |
| Altitude | 32100 |
| Route | TES61X/06 TESIG A470 BEBEM/N0465F321 DOTMI DCT SAMMI J101 SMT |
| Aircraft | A320/M-SDE3FGHIRWY/LB1 |
Departure
| Time | N/A |
|---|---|
| Airport | Nanjing Lukou International Airport (ZSNJ) |
Arrival
| Time | 2026-04-20 15:47 |
|---|---|
| Airport | Macau International Airport (VMMC) |
| Time | Latitude | Longitude | Altitude | Speed | Heading |
|---|---|---|---|---|---|
| 2026-04-20 15:21 | 22.08732 | 114.13660 | 11032 ft | 323 kts | 193° |
| 2026-04-20 15:21 | 22.06582 | 114.12967 | 10972 ft | 316 kts | 205° |
| 2026-04-20 15:22 | 22.04691 | 114.11853 | 10990 ft | 314 kts | 217° |
| 2026-04-20 15:22 | 22.03036 | 114.10335 | 10992 ft | 312 kts | 228° |
| 2026-04-20 15:22 | 22.01698 | 114.08467 | 10990 ft | 311 kts | 240° |
| 2026-04-20 15:22 | 22.00742 | 114.06331 | 10990 ft | 311 kts | 251° |
| 2026-04-20 15:23 | 22.00216 | 114.04062 | 10991 ft | 310 kts | 262° |
| 2026-04-20 15:23 | 22.00122 | 114.01777 | 10999 ft | 310 kts | 272° |
| 2026-04-20 15:23 | 22.00288 | 113.99428 | 10986 ft | 310 kts | 274° |
| 2026-04-20 15:23 | 22.00451 | 113.97108 | 10993 ft | 310 kts | 273° |
| 2026-04-20 15:24 | 22.00609 | 113.94792 | 10991 ft | 310 kts | 273° |
| 2026-04-20 15:24 | 22.00765 | 113.92469 | 10992 ft | 310 kts | 273° |
| 2026-04-20 15:24 | 22.00922 | 113.90138 | 10980 ft | 310 kts | 273° |
| 2026-04-20 15:24 | 22.01077 | 113.87831 | 10992 ft | 311 kts | 273° |
| 2026-04-20 15:25 | 22.01234 | 113.85509 | 10981 ft | 311 kts | 273° |
| 2026-04-20 15:25 | 22.01389 | 113.83189 | 10981 ft | 311 kts | 273° |
| 2026-04-20 15:25 | 22.01546 | 113.80872 | 10980 ft | 311 kts | 273° |
| 2026-04-20 15:25 | 22.01705 | 113.78551 | 10980 ft | 310 kts | 273° |
| 2026-04-20 15:26 | 22.01866 | 113.76229 | 10980 ft | 311 kts | 273° |
| 2026-04-20 15:26 | 22.02026 | 113.73878 | 10974 ft | 310 kts | 273° |
| 2026-04-20 15:26 | 22.02179 | 113.71597 | 10973 ft | 310 kts | 273° |
| 2026-04-20 15:26 | 22.02331 | 113.69279 | 10975 ft | 310 kts | 273° |
| 2026-04-20 15:27 | 22.02303 | 113.66937 | 10971 ft | 309 kts | 264° |
| 2026-04-20 15:27 | 22.02203 | 113.64625 | 10967 ft | 309 kts | 274° |
| 2026-04-20 15:27 | 22.02743 | 113.62386 | 10968 ft | 312 kts | 294° |
| 2026-04-20 15:27 | 22.04023 | 113.60439 | 10973 ft | 316 kts | 314° |
| 2026-04-20 15:28 | 22.05699 | 113.58978 | 10978 ft | 318 kts | 321° |
| 2026-04-20 15:28 | 22.07510 | 113.57607 | 10966 ft | 319 kts | 323° |
| 2026-04-20 15:28 | 22.09375 | 113.56272 | 10351 ft | 324 kts | 324° |
| 2026-04-20 15:28 | 22.11269 | 113.54940 | 9524 ft | 325 kts | 324° |
| 2026-04-20 15:29 | 22.13168 | 113.53578 | 8664 ft | 325 kts | 323° |
| 2026-04-20 15:29 | 22.15034 | 113.52185 | 7808 ft | 326 kts | 323° |
| 2026-04-20 15:29 | 22.16936 | 113.50727 | 6962 ft | 327 kts | 322° |
| 2026-04-20 15:29 | 22.18789 | 113.49290 | 6269 ft | 326 kts | 322° |
| 2026-04-20 15:30 | 22.20730 | 113.48166 | 6019 ft | 310 kts | 342° |
| 2026-04-20 15:30 | 22.22802 | 113.47896 | 5847 ft | 293 kts | 4° |
| 2026-04-20 15:30 | 22.24716 | 113.48426 | 5598 ft | 279 kts | 27° |
| 2026-04-20 15:30 | 22.26338 | 113.49472 | 5379 ft | 265 kts | 33° |
| 2026-04-20 15:31 | 22.27860 | 113.50503 | 5167 ft | 252 kts | 33° |
| 2026-04-20 15:31 | 22.29352 | 113.51509 | 4958 ft | 242 kts | 33° |
| 2026-04-20 15:31 | 22.30777 | 113.52470 | 4760 ft | 241 kts | 33° |
| 2026-04-20 15:31 | 22.32179 | 113.53416 | 4552 ft | 232 kts | 33° |
| 2026-04-20 15:32 | 22.33514 | 113.54318 | 4372 ft | 221 kts | 34° |
| 2026-04-20 15:32 | 22.34826 | 113.55208 | 4193 ft | 219 kts | 36° |
| 2026-04-20 15:32 | 22.35858 | 113.56340 | 4015 ft | 213 kts | 64° |
| 2026-04-20 15:32 | 22.36350 | 113.57814 | 3838 ft | 206 kts | 88° |
| 2026-04-20 15:33 | 22.36374 | 113.59365 | 3666 ft | 203 kts | 96° |
| 2026-04-20 15:33 | 22.36076 | 113.60773 | 3510 ft | 188 kts | 122° |
| 2026-04-20 15:33 | 22.35238 | 113.61813 | 3340 ft | 173 kts | 148° |
| 2026-04-20 15:33 | 22.34176 | 113.62305 | 3189 ft | 162 kts | 166° |
| 2026-04-20 15:34 | 22.33083 | 113.62644 | 3042 ft | 153 kts | 165° |
| 2026-04-20 15:34 | 22.32115 | 113.62949 | 2918 ft | 145 kts | 165° |
| 2026-04-20 15:34 | 22.31161 | 113.63251 | 2812 ft | 141 kts | 165° |
| 2026-04-20 15:34 | 22.30225 | 113.63549 | 2703 ft | 140 kts | 165° |
| 2026-04-20 15:35 | 22.29286 | 113.63847 | 2636 ft | 138 kts | 165° |
| 2026-04-20 15:35 | 22.28360 | 113.64045 | 2496 ft | 136 kts | 176° |
| 2026-04-20 15:35 | 22.27412 | 113.63998 | 2390 ft | 136 kts | 189° |
| 2026-04-20 15:35 | 22.26502 | 113.63703 | 2274 ft | 137 kts | 201° |
| 2026-04-20 15:36 | 22.25682 | 113.63180 | 2164 ft | 137 kts | 213° |
| 2026-04-20 15:36 | 22.25213 | 113.62722 | 2089 ft | 138 kts | 223° |
| 2026-04-20 15:36 | 22.24574 | 113.61850 | 1981 ft | 138 kts | 228° |
| 2026-04-20 15:36 | 22.23993 | 113.61029 | 1865 ft | 138 kts | 227° |
| 2026-04-20 15:37 | 22.23408 | 113.60206 | 1740 ft | 139 kts | 229° |
| 2026-04-20 15:37 | 22.22811 | 113.59368 | 1546 ft | 139 kts | 229° |
| 2026-04-20 15:37 | 22.22223 | 113.58545 | 1357 ft | 139 kts | 229° |
| 2026-04-20 15:37 | 22.21520 | 113.57846 | 1171 ft | 137 kts | 210° |
| 2026-04-20 15:38 | 22.20629 | 113.57458 | 992 ft | 136 kts | 190° |
| 2026-04-20 15:38 | 22.19699 | 113.57431 | 817 ft | 134 kts | 170° |
| 2026-04-20 15:38 | 22.18791 | 113.57742 | 649 ft | 133 kts | 158° |
| 2026-04-20 15:38 | 22.17905 | 113.58081 | 459 ft | 135 kts | 162° |
| 2026-04-20 15:39 | 22.16979 | 113.58400 | 270 ft | 135 kts | 161° |
| 2026-04-20 15:39 | 22.16057 | 113.58733 | 72 ft | 134 kts | 161° |
| 2026-04-20 15:39 | 22.15236 | 113.59018 | 42 ft | 114 kts | 162° |
| 2026-04-20 15:39 | 22.14408 | 113.59280 | 544 ft | 126 kts | 163° |
| 2026-04-20 15:40 | 22.13513 | 113.59536 | 1048 ft | 139 kts | 167° |
| 2026-04-20 15:40 | 22.12543 | 113.59799 | 1636 ft | 149 kts | 164° |
| 2026-04-20 15:40 | 22.11543 | 113.60302 | 1864 ft | 171 kts | 140° |
| 2026-04-20 15:40 | 22.10970 | 113.61518 | 1805 ft | 201 kts | 102° |
| 2026-04-20 15:41 | 22.10840 | 113.63084 | 1806 ft | 210 kts | 95° |
| 2026-04-20 15:41 | 22.10798 | 113.64666 | 1807 ft | 213 kts | 92° |
| 2026-04-20 15:41 | 22.11208 | 113.66197 | 1808 ft | 219 kts | 58° |
| 2026-04-20 15:41 | 22.12388 | 113.67246 | 1811 ft | 225 kts | 22° |
| 2026-04-20 15:42 | 22.13947 | 113.67476 | 1814 ft | 226 kts | 358° |
| 2026-04-20 15:42 | 22.15487 | 113.67368 | 1803 ft | 214 kts | 355° |
| 2026-04-20 15:42 | 22.16935 | 113.67229 | 1804 ft | 206 kts | 354° |
| 2026-04-20 15:42 | 22.18342 | 113.67042 | 1806 ft | 202 kts | 344° |
| 2026-04-20 15:43 | 22.19670 | 113.66562 | 1808 ft | 201 kts | 338° |
| 2026-04-20 15:43 | 22.20971 | 113.66004 | 1808 ft | 201 kts | 336° |
| 2026-04-20 15:43 | 22.22273 | 113.65433 | 1812 ft | 205 kts | 336° |
| 2026-04-20 15:43 | 22.23595 | 113.64832 | 1801 ft | 207 kts | 330° |
| 2026-04-20 15:44 | 22.24605 | 113.63759 | 1807 ft | 202 kts | 292° |
| 2026-04-20 15:44 | 22.24893 | 113.62347 | 1636 ft | 181 kts | 268° |
| 2026-04-20 15:44 | 22.24806 | 113.61074 | 1423 ft | 162 kts | 250° |
| 2026-04-20 15:44 | 22.24516 | 113.60366 | 1377 ft | 147 kts | 232° |
| 2026-04-20 15:45 | 22.23790 | 113.59654 | 1236 ft | 139 kts | 210° |
| 2026-04-20 15:45 | 22.22988 | 113.59094 | 1114 ft | 137 kts | 210° |
| 2026-04-20 15:45 | 22.22257 | 113.58434 | 890 ft | 134 kts | 220° |
| 2026-04-20 15:45 | 22.21442 | 113.57971 | 853 ft | 133 kts | 194° |
| 2026-04-20 15:46 | 22.20512 | 113.57745 | 858 ft | 136 kts | 189° |
| 2026-04-20 15:46 | 22.19577 | 113.57579 | 762 ft | 136 kts | 184° |
| 2026-04-20 15:46 | 22.18661 | 113.57728 | 596 ft | 134 kts | 158° |
| 2026-04-20 15:46 | 22.17780 | 113.58113 | 427 ft | 136 kts | 160° |
| 2026-04-20 15:47 | 22.16884 | 113.58427 | 249 ft | 135 kts | 161° |
| 2026-04-20 15:47 | 22.16001 | 113.58748 | 64 ft | 133 kts | 161° |
| 2026-04-20 15:47 | 22.15204 | 113.59041 | 29 ft | 101 kts | 158° |
| 2026-04-20 15:47 | 22.14786 | 113.59205 | 27 ft | 44 kts | 161° |
| 2026-04-20 15:48 | 22.14601 | 113.59212 | 28 ft | 23 kts | 244° |
| 2026-04-20 15:48 | 22.14579 | 113.59110 | 28 ft | 14 kts | 290° |
| 2026-04-20 15:48 | 22.14666 | 113.59059 | 28 ft | 16 kts | 337° |
| 2026-04-20 15:48 | 22.14758 | 113.58989 | 29 ft | 14 kts | 302° |
| 2026-04-20 15:49 | 22.14816 | 113.58893 | 29 ft | 16 kts | 303° |
| 2026-04-20 15:49 | 22.14885 | 113.58777 | 29 ft | 19 kts | 304° |
| 2026-04-20 15:49 | 22.14964 | 113.58654 | 29 ft | 22 kts | 303° |
| 2026-04-20 15:49 | 22.15050 | 113.58513 | 29 ft | 24 kts | 303° |
| 2026-04-20 15:50 | 22.15145 | 113.58353 | 29 ft | 27 kts | 302° |
| 2026-04-20 15:50 | 22.15233 | 113.58217 | 29 ft | 21 kts | 305° |
| 2026-04-20 15:50 | 22.15318 | 113.58081 | 29 ft | 23 kts | 303° |
| 2026-04-20 15:50 | 22.15412 | 113.57926 | 29 ft | 26 kts | 303° |
| 2026-04-20 15:51 | 22.15514 | 113.57754 | 29 ft | 23 kts | 304° |
| 2026-04-20 15:51 | 22.15590 | 113.57639 | 29 ft | 14 kts | 303° |
| 2026-04-20 15:51 | 22.15656 | 113.57565 | 29 ft | 10 kts | 314° |
| 2026-04-20 15:51 | 22.15685 | 113.57532 | 29 ft | 1 kts | 314° |
| 2026-04-20 15:52 | 22.15691 | 113.57526 | 29 ft | 1 kts | 314° |
| 2026-04-20 15:52 | 22.15691 | 113.57525 | 29 ft | 0 kts | 314° |